sensor_id;sensor_type;location;lat;lon;timestamp;temperature;humidity
75380;HTU21D;65641;44.714;37.756;2024-02-15T00:01:01;13.86;84.63
75380;HTU21D;65641;44.714;37.756;2024-02-15T00:02:04;13.84;84.68
75380;HTU21D;65641;44.714;37.756;2024-02-15T00:03:07;13.84;84.80
75380;HTU21D;65641;44.714;37.756;2024-02-15T00:04:11;13.83;84.89
75380;HTU21D;65641;44.714;37.756;2024-02-15T00:05:14;13.83;84.98
75380;HTU21D;65641;44.714;37.756;2024-02-15T00:06:19;13.82;84.74
75380;HTU21D;65641;44.714;37.756;2024-02-15T00:07:23;13.81;84.56
75380;HTU21D;65641;44.714;37.756;2024-02-15T00:08:28;13.81;84.48
75380;HTU21D;65641;44.714;37.756;2024-02-15T00:09:32;13.79;84.64
75380;HTU21D;65641;44.714;37.756;2024-02-15T00:10:35;13.78;84.82
75380;HTU21D;65641;44.714;37.756;2024-02-15T00:11:38;13.77;84.95
75380;HTU21D;65641;44.714;37.756;2024-02-15T00:12:42;13.76;84.43
75380;HTU21D;65641;44.714;37.756;2024-02-15T00:13:45;13.75;84.59
75380;HTU21D;65641;44.714;37.756;2024-02-15T00:14:49;13.74;84.91
75380;HTU21D;65641;44.714;37.756;2024-02-15T00:15:52;13.73;85.17
75380;HTU21D;65641;44.714;37.756;2024-02-15T00:16:56;13.71;85.19
75380;HTU21D;65641;44.714;37.756;2024-02-15T00:17:59;13.70;85.25
75380;HTU21D;65641;44.714;37.756;2024-02-15T00:19:03;13.70;85.17
75380;HTU21D;65641;44.714;37.756;2024-02-15T00:20:07;13.70;85.03
75380;HTU21D;65641;44.714;37.756;2024-02-15T00:21:12;13.69;85.12
75380;HTU21D;65641;44.714;37.756;2024-02-15T00:22:16;13.67;85.22
75380;HTU21D;65641;44.714;37.756;2024-02-15T00:23:20;13.66;85.32
75380;HTU21D;65641;44.714;37.756;2024-02-15T00:24:24;13.67;85.32
75380;HTU21D;65641;44.714;37.756;2024-02-15T00:25:27;13.65;85.29
75380;HTU21D;65641;44.714;37.756;2024-02-15T00:26:30;13.64;85.26
75380;HTU21D;65641;44.714;37.756;2024-02-15T00:27:35;13.65;85.20
75380;HTU21D;65641;44.714;37.756;2024-02-15T00:28:41;13.63;84.93
75380;HTU21D;65641;44.714;37.756;2024-02-15T00:29:44;13.63;85.03
75380;HTU21D;65641;44.714;37.756;2024-02-15T00:30:48;13.62;85.26
75380;HTU21D;65641;44.714;37.756;2024-02-15T00:31:52;13.61;85.35
75380;HTU21D;65641;44.714;37.756;2024-02-15T00:32:55;13.60;85.09
75380;HTU21D;65641;44.714;37.756;2024-02-15T00:33:59;13.55;84.52
75380;HTU21D;65641;44.714;37.756;2024-02-15T00:35:04;13.52;84.64
75380;HTU21D;65641;44.714;37.756;2024-02-15T00:36:14;13.53;84.75
75380;HTU21D;65641;44.714;37.756;2024-02-15T00:37:18;13.50;84.23
75380;HTU21D;65641;44.714;37.756;2024-02-15T00:38:21;13.49;84.34
75380;HTU21D;65641;44.714;37.756;2024-02-15T00:39:25;13.46;84.17
75380;HTU21D;65641;44.714;37.756;2024-02-15T00:40:28;13.46;84.07
75380;HTU21D;65641;44.714;37.756;2024-02-15T00:41:32;13.46;84.24
75380;HTU21D;65641;44.714;37.756;2024-02-15T00:42:37;13.40;82.89
75380;HTU21D;65641;44.714;37.756;2024-02-15T00:43:40;13.39;83.97
75380;HTU21D;65641;44.714;37.756;2024-02-15T00:44:44;13.37;83.71
75380;HTU21D;65641;44.714;37.756;2024-02-15T00:45:47;13.36;83.87
75380;HTU21D;65641;44.714;37.756;2024-02-15T00:46:51;13.36;83.83
75380;HTU21D;65641;44.714;37.756;2024-02-15T00:47:54;13.34;83.83
75380;HTU21D;65641;44.714;37.756;2024-02-15T00:48:59;13.34;83.48
75380;HTU21D;65641;44.714;37.756;2024-02-15T00:50:03;13.33;83.85
75380;HTU21D;65641;44.714;37.756;2024-02-15T00:51:08;13.30;83.96
75380;HTU21D;65641;44.714;37.756;2024-02-15T00:52:11;13.30;83.60
75380;HTU21D;65641;44.714;37.756;2024-02-15T00:53:15;13.27;83.63
75380;HTU21D;65641;44.714;37.756;2024-02-15T00:54:19;13.27;83.68
75380;HTU21D;65641;44.714;37.756;2024-02-15T00:55:23;13.24;83.26
75380;HTU21D;65641;44.714;37.756;2024-02-15T00:56:26;13.22;83.60
75380;HTU21D;65641;44.714;37.756;2024-02-15T00:57:31;13.21;83.51
75380;HTU21D;65641;44.714;37.756;2024-02-15T00:58:34;13.19;83.08
75380;HTU21D;65641;44.714;37.756;2024-02-15T00:59:38;13.17;83.43
75380;HTU21D;65641;44.714;37.756;2024-02-15T01:00:41;13.16;83.17
75380;HTU21D;65641;44.714;37.756;2024-02-15T01:01:45;13.15;83.40
75380;HTU21D;65641;44.714;37.756;2024-02-15T01:02:49;13.15;83.39
75380;HTU21D;65641;44.714;37.756;2024-02-15T01:03:53;13.11;83.32
75380;HTU21D;65641;44.714;37.756;2024-02-15T01:04:56;13.11;83.61
75380;HTU21D;65641;44.714;37.756;2024-02-15T01:06:01;13.11;83.57
75380;HTU21D;65641;44.714;37.756;2024-02-15T01:07:05;13.09;83.38
75380;HTU21D;65641;44.714;37.756;2024-02-15T01:08:09;13.07;83.31
75380;HTU21D;65641;44.714;37.756;2024-02-15T01:09:12;13.06;83.52
75380;HTU21D;65641;44.714;37.756;2024-02-15T01:10:16;13.06;83.54
75380;HTU21D;65641;44.714;37.756;2024-02-15T01:11:20;13.05;83.44
75380;HTU21D;65641;44.714;37.756;2024-02-15T01:12:24;13.02;83.69
75380;HTU21D;65641;44.714;37.756;2024-02-15T01:13:27;13.02;83.45
75380;HTU21D;65641;44.714;37.756;2024-02-15T01:14:31;12.99;83.69
75380;HTU21D;65641;44.714;37.756;2024-02-15T01:15:35;12.97;83.71
75380;HTU21D;65641;44.714;37.756;2024-02-15T01:16:40;12.97;83.84
75380;HTU21D;65641;44.714;37.756;2024-02-15T01:17:44;12.95;83.71
75380;HTU21D;65641;44.714;37.756;2024-02-15T01:18:49;12.94;83.66
75380;HTU21D;65641;44.714;37.756;2024-02-15T01:19:52;12.92;83.97
75380;HTU21D;65641;44.714;37.756;2024-02-15T01:20:57;12.92;83.73
75380;HTU21D;65641;44.714;37.756;2024-02-15T01:22:01;12.90;83.72
75380;HTU21D;65641;44.714;37.756;2024-02-15T01:23:07;12.88;83.99
75380;HTU21D;65641;44.714;37.756;2024-02-15T01:24:11;12.87;84.10
75380;HTU21D;65641;44.714;37.756;2024-02-15T01:25:14;12.85;83.85
75380;HTU21D;65641;44.714;37.756;2024-02-15T01:26:18;12.82;83.90
75380;HTU21D;65641;44.714;37.756;2024-02-15T01:27:22;12.81;84.14
75380;HTU21D;65641;44.714;37.756;2024-02-15T01:28:25;12.80;84.06
75380;HTU21D;65641;44.714;37.756;2024-02-15T01:29:30;12.80;84.02
75380;HTU21D;65641;44.714;37.756;2024-02-15T01:30:33;12.79;83.98
75380;HTU21D;65641;44.714;37.756;2024-02-15T01:31:37;12.77;84.06
75380;HTU21D;65641;44.714;37.756;2024-02-15T01:32:42;12.77;83.99
75380;HTU21D;65641;44.714;37.756;2024-02-15T01:33:47;12.76;84.04
75380;HTU21D;65641;44.714;37.756;2024-02-15T01:34:51;12.76;84.03
75380;HTU21D;65641;44.714;37.756;2024-02-15T01:35:57;12.74;83.99
75380;HTU21D;65641;44.714;37.756;2024-02-15T01:37:01;12.73;84.07
75380;HTU21D;65641;44.714;37.756;2024-02-15T01:38:07;12.70;83.78
75380;HTU21D;65641;44.714;37.756;2024-02-15T01:39:11;12.66;83.65
75380;HTU21D;65641;44.714;37.756;2024-02-15T01:40:15;12.66;83.82
75380;HTU21D;65641;44.714;37.756;2024-02-15T01:41:20;12.64;83.83
75380;HTU21D;65641;44.714;37.756;2024-02-15T01:42:23;12.62;83.72
75380;HTU21D;65641;44.714;37.756;2024-02-15T01:43:27;12.61;83.58
75380;HTU21D;65641;44.714;37.756;2024-02-15T01:44:30;12.59;83.95
75380;HTU21D;65641;44.714;37.756;2024-02-15T01:45:34;12.57;83.96
75380;HTU21D;65641;44.714;37.756;2024-02-15T01:46:38;12.57;83.99
75380;HTU21D;65641;44.714;37.756;2024-02-15T01:47:42;12.57;83.64
75380;HTU21D;65641;44.714;37.756;2024-02-15T01:48:47;12.56;83.81
75380;HTU21D;65641;44.714;37.756;2024-02-15T01:49:52;12.55;83.87
75380;HTU21D;65641;44.714;37.756;2024-02-15T01:50:56;12.55;84.07
75380;HTU21D;65641;44.714;37.756;2024-02-15T01:52:04;12.52;83.69
75380;HTU21D;65641;44.714;37.756;2024-02-15T01:53:12;12.53;83.87
75380;HTU21D;65641;44.714;37.756;2024-02-15T01:54:16;12.51;84.00
75380;HTU21D;65641;44.714;37.756;2024-02-15T01:55:21;12.50;83.97
75380;HTU21D;65641;44.714;37.756;2024-02-15T01:56:24;12.49;84.20
75380;HTU21D;65641;44.714;37.756;2024-02-15T01:57:28;12.48;84.03
75380;HTU21D;65641;44.714;37.756;2024-02-15T01:58:33;12.48;84.00
75380;HTU21D;65641;44.714;37.756;2024-02-15T01:59:38;12.48;83.75
75380;HTU21D;65641;44.714;37.756;2024-02-15T02:00:42;12.46;83.85
75380;HTU21D;65641;44.714;37.756;2024-02-15T02:01:45;12.46;84.03
75380;HTU21D;65641;44.714;37.756;2024-02-15T02:02:49;12.44;84.04
75380;HTU21D;65641;44.714;37.756;2024-02-15T02:03:53;12.42;83.94
75380;HTU21D;65641;44.714;37.756;2024-02-15T02:04:56;12.42;83.88
75380;HTU21D;65641;44.714;37.756;2024-02-15T02:06:00;12.41;84.05
75380;HTU21D;65641;44.714;37.756;2024-02-15T02:07:04;12.40;83.78
75380;HTU21D;65641;44.714;37.756;2024-02-15T02:08:07;12.40;84.10
75380;HTU21D;65641;44.714;37.756;2024-02-15T02:09:13;12.37;83.96
75380;HTU21D;65641;44.714;37.756;2024-02-15T02:10:18;12.37;84.09
75380;HTU21D;65641;44.714;37.756;2024-02-15T02:11:23;12.36;84.11
75380;HTU21D;65641;44.714;37.756;2024-02-15T02:12:27;12.36;84.03
75380;HTU21D;65641;44.714;37.756;2024-02-15T02:13:30;12.35;84.35
75380;HTU21D;65641;44.714;37.756;2024-02-15T02:14:34;12.34;84.52
75380;HTU21D;65641;44.714;37.756;2024-02-15T02:15:37;12.32;84.39
75380;HTU21D;65641;44.714;37.756;2024-02-15T02:16:41;12.31;84.27
75380;HTU21D;65641;44.714;37.756;2024-02-15T02:17:51;12.30;84.03
75380;HTU21D;65641;44.714;37.756;2024-02-15T02:18:55;12.29;83.97
75380;HTU21D;65641;44.714;37.756;2024-02-15T02:20:03;12.27;83.98
75380;HTU21D;65641;44.714;37.756;2024-02-15T02:21:12;12.26;84.52
75380;HTU21D;65641;44.714;37.756;2024-02-15T02:22:16;12.26;84.49
75380;HTU21D;65641;44.714;37.756;2024-02-15T02:23:26;12.26;84.55
75380;HTU21D;65641;44.714;37.756;2024-02-15T02:24:29;12.26;84.47
75380;HTU21D;65641;44.714;37.756;2024-02-15T02:25:35;12.27;84.41
75380;HTU21D;65641;44.714;37.756;2024-02-15T02:26:39;12.26;84.61
75380;HTU21D;65641;44.714;37.756;2024-02-15T02:27:43;12.28;84.43
75380;HTU21D;65641;44.714;37.756;2024-02-15T02:28:48;12.28;84.48
75380;HTU21D;65641;44.714;37.756;2024-02-15T02:29:52;12.27;84.37
75380;HTU21D;65641;44.714;37.756;2024-02-15T02:30:55;12.28;84.38
75380;HTU21D;65641;44.714;37.756;2024-02-15T02:31:59;12.26;84.46
75380;HTU21D;65641;44.714;37.756;2024-02-15T02:33:03;12.28;84.35
75380;HTU21D;65641;44.714;37.756;2024-02-15T02:34:10;12.27;84.39
75380;HTU21D;65641;44.714;37.756;2024-02-15T02:35:14;12.26;84.13
75380;HTU21D;65641;44.714;37.756;2024-02-15T02:36:19;12.25;84.12
75380;HTU21D;65641;44.714;37.756;2024-02-15T02:37:26;12.23;84.13
75380;HTU21D;65641;44.714;37.756;2024-02-15T02:38:29;12.22;84.27
75380;HTU21D;65641;44.714;37.756;2024-02-15T02:39:34;12.21;84.28
75380;HTU21D;65641;44.714;37.756;2024-02-15T02:40:38;12.20;84.27
75380;HTU21D;65641;44.714;37.756;2024-02-15T02:41:41;12.18;84.18
75380;HTU21D;65641;44.714;37.756;2024-02-15T02:43:52;12.17;84.41
75380;HTU21D;65641;44.714;37.756;2024-02-15T02:44:55;12.16;84.28
75380;HTU21D;65641;44.714;37.756;2024-02-15T02:45:59;12.14;84.13
75380;HTU21D;65641;44.714;37.756;2024-02-15T02:47:03;12.13;84.38
75380;HTU21D;65641;44.714;37.756;2024-02-15T02:48:06;12.11;84.29
75380;HTU21D;65641;44.714;37.756;2024-02-15T02:49:10;12.11;84.68
75380;HTU21D;65641;44.714;37.756;2024-02-15T02:50:15;12.10;84.41
75380;HTU21D;65641;44.714;37.756;2024-02-15T02:51:19;12.10;84.56
75380;HTU21D;65641;44.714;37.756;2024-02-15T02:52:23;12.08;84.71
75380;HTU21D;65641;44.714;37.756;2024-02-15T02:53:26;12.07;84.45
75380;HTU21D;65641;44.714;37.756;2024-02-15T02:54:30;12.07;84.52
75380;HTU21D;65641;44.714;37.756;2024-02-15T02:55:33;12.06;84.64
75380;HTU21D;65641;44.714;37.756;2024-02-15T02:56:37;12.05;84.64
75380;HTU21D;65641;44.714;37.756;2024-02-15T02:57:41;12.04;84.70
75380;HTU21D;65641;44.714;37.756;2024-02-15T02:58:45;12.04;84.58
75380;HTU21D;65641;44.714;37.756;2024-02-15T02:59:48;12.02;84.38
75380;HTU21D;65641;44.714;37.756;2024-02-15T03:00:53;12.00;84.55
75380;HTU21D;65641;44.714;37.756;2024-02-15T03:01:56;11.99;84.54
75380;HTU21D;65641;44.714;37.756;2024-02-15T03:03:00;11.97;84.72
75380;HTU21D;65641;44.714;37.756;2024-02-15T03:04:04;11.96;84.63
75380;HTU21D;65641;44.714;37.756;2024-02-15T03:05:08;11.93;84.73
75380;HTU21D;65641;44.714;37.756;2024-02-15T03:06:12;11.93;84.74
75380;HTU21D;65641;44.714;37.756;2024-02-15T03:07:23;11.90;84.58
75380;HTU21D;65641;44.714;37.756;2024-02-15T03:08:27;11.89;84.81
75380;HTU21D;65641;44.714;37.756;2024-02-15T03:09:30;11.88;84.48
75380;HTU21D;65641;44.714;37.756;2024-02-15T03:10:34;11.86;84.93
75380;HTU21D;65641;44.714;37.756;2024-02-15T03:11:37;11.85;85.03
75380;HTU21D;65641;44.714;37.756;2024-02-15T03:12:41;11.85;85.12
75380;HTU21D;65641;44.714;37.756;2024-02-15T03:13:51;11.84;85.22
75380;HTU21D;65641;44.714;37.756;2024-02-15T03:14:54;11.82;85.22
75380;HTU21D;65641;44.714;37.756;2024-02-15T03:15:58;11.83;85.12
75380;HTU21D;65641;44.714;37.756;2024-02-15T03:17:02;11.82;85.07
75380;HTU21D;65641;44.714;37.756;2024-02-15T03:18:06;11.82;84.79
75380;HTU21D;65641;44.714;37.756;2024-02-15T03:19:13;11.79;84.78
75380;HTU21D;65641;44.714;37.756;2024-02-15T03:20:17;11.77;84.94
75380;HTU21D;65641;44.714;37.756;2024-02-15T03:21:27;11.75;84.95
75380;HTU21D;65641;44.714;37.756;2024-02-15T03:22:30;11.74;85.13
75380;HTU21D;65641;44.714;37.756;2024-02-15T03:23:34;11.73;85.20
75380;HTU21D;65641;44.714;37.756;2024-02-15T03:24:37;11.72;85.05
75380;HTU21D;65641;44.714;37.756;2024-02-15T03:25:41;11.71;85.04
75380;HTU21D;65641;44.714;37.756;2024-02-15T03:26:44;11.68;84.78
75380;HTU21D;65641;44.714;37.756;2024-02-15T03:27:48;11.68;84.97
75380;HTU21D;65641;44.714;37.756;2024-02-15T03:28:53;11.66;84.52
75380;HTU21D;65641;44.714;37.756;2024-02-15T03:29:56;11.64;84.90
75380;HTU21D;65641;44.714;37.756;2024-02-15T03:31:02;11.62;85.06
75380;HTU21D;65641;44.714;37.756;2024-02-15T03:32:05;11.62;85.09
75380;HTU21D;65641;44.714;37.756;2024-02-15T03:33:09;11.61;84.63
75380;HTU21D;65641;44.714;37.756;2024-02-15T03:34:13;11.57;84.63
75380;HTU21D;65641;44.714;37.756;2024-02-15T03:35:24;11.55;84.90
75380;HTU21D;65641;44.714;37.756;2024-02-15T03:36:28;11.53;85.05
75380;HTU21D;65641;44.714;37.756;2024-02-15T03:37:32;11.54;84.95
75380;HTU21D;65641;44.714;37.756;2024-02-15T03:38:40;11.52;84.87
75380;HTU21D;65641;44.714;37.756;2024-02-15T03:39:44;11.49;85.23
75380;HTU21D;65641;44.714;37.756;2024-02-15T03:40:48;11.52;85.13
75380;HTU21D;65641;44.714;37.756;2024-02-15T03:41:52;11.48;85.12
75380;HTU21D;65641;44.714;37.756;2024-02-15T03:42:56;11.49;84.93
75380;HTU21D;65641;44.714;37.756;2024-02-15T03:44:00;11.49;85.06
75380;HTU21D;65641;44.714;37.756;2024-02-15T03:45:04;11.46;84.93
75380;HTU21D;65641;44.714;37.756;2024-02-15T03:46:11;11.45;84.83
75380;HTU21D;65641;44.714;37.756;2024-02-15T03:47:16;11.45;84.90
75380;HTU21D;65641;44.714;37.756;2024-02-15T03:48:19;11.44;84.66
75380;HTU21D;65641;44.714;37.756;2024-02-15T03:49:24;11.42;84.77
75380;HTU21D;65641;44.714;37.756;2024-02-15T03:50:34;11.41;84.87
75380;HTU21D;65641;44.714;37.756;2024-02-15T03:51:38;11.40;85.06
75380;HTU21D;65641;44.714;37.756;2024-02-15T03:52:42;11.40;85.03
75380;HTU21D;65641;44.714;37.756;2024-02-15T03:53:47;11.39;85.16
75380;HTU21D;65641;44.714;37.756;2024-02-15T03:54:58;11.39;84.81
75380;HTU21D;65641;44.714;37.756;2024-02-15T03:56:04;11.36;84.38
75380;HTU21D;65641;44.714;37.756;2024-02-15T03:57:08;11.33;84.61
75380;HTU21D;65641;44.714;37.756;2024-02-15T03:58:11;11.32;84.88
75380;HTU21D;65641;44.714;37.756;2024-02-15T03:59:18;11.31;85.10
75380;HTU21D;65641;44.714;37.756;2024-02-15T04:00:25;11.30;85.04
75380;HTU21D;65641;44.714;37.756;2024-02-15T04:01:29;11.29;84.93
75380;HTU21D;65641;44.714;37.756;2024-02-15T04:02:36;11.30;85.06
75380;HTU21D;65641;44.714;37.756;2024-02-15T04:03:41;11.30;85.09
75380;HTU21D;65641;44.714;37.756;2024-02-15T04:04:45;11.29;85.20
75380;HTU21D;65641;44.714;37.756;2024-02-15T04:05:51;11.29;85.19
75380;HTU21D;65641;44.714;37.756;2024-02-15T04:06:56;11.29;85.29
75380;HTU21D;65641;44.714;37.756;2024-02-15T04:07:59;11.28;85.20
75380;HTU21D;65641;44.714;37.756;2024-02-15T04:09:06;11.29;85.13
75380;HTU21D;65641;44.714;37.756;2024-02-15T04:10:10;11.27;84.74
75380;HTU21D;65641;44.714;37.756;2024-02-15T04:11:29;11.27;85.01
75380;HTU21D;65641;44.714;37.756;2024-02-15T04:12:33;11.26;85.11
75380;HTU21D;65641;44.714;37.756;2024-02-15T04:13:36;11.26;85.07
75380;HTU21D;65641;44.714;37.756;2024-02-15T04:14:40;11.25;84.76
75380;HTU21D;65641;44.714;37.756;2024-02-15T04:15:44;11.23;84.97
75380;HTU21D;65641;44.714;37.756;2024-02-15T04:16:50;11.20;85.01
75380;HTU21D;65641;44.714;37.756;2024-02-15T04:17:53;11.22;85.09
75380;HTU21D;65641;44.714;37.756;2024-02-15T04:18:59;11.19;85.19
75380;HTU21D;65641;44.714;37.756;2024-02-15T04:20:04;11.18;85.03
75380;HTU21D;65641;44.714;37.756;2024-02-15T04:21:09;11.17;84.90
75380;HTU21D;65641;44.714;37.756;2024-02-15T04:22:13;11.15;85.08
75380;HTU21D;65641;44.714;37.756;2024-02-15T04:23:19;11.16;85.22
75380;HTU21D;65641;44.714;37.756;2024-02-15T04:24:24;11.17;85.44
75380;HTU21D;65641;44.714;37.756;2024-02-15T04:25:28;11.18;85.39
75380;HTU21D;65641;44.714;37.756;2024-02-15T04:26:34;11.17;85.49
75380;HTU21D;65641;44.714;37.756;2024-02-15T04:27:40;11.17;85.38
75380;HTU21D;65641;44.714;37.756;2024-02-15T04:28:43;11.18;85.29
75380;HTU21D;65641;44.714;37.756;2024-02-15T04:29:46;11.18;85.22
75380;HTU21D;65641;44.714;37.756;2024-02-15T04:30:50;11.16;84.87
75380;HTU21D;65641;44.714;37.756;2024-02-15T04:31:53;11.15;84.97
75380;HTU21D;65641;44.714;37.756;2024-02-15T04:32:58;11.15;85.29
75380;HTU21D;65641;44.714;37.756;2024-02-15T04:34:02;11.16;85.43
75380;HTU21D;65641;44.714;37.756;2024-02-15T04:35:07;11.16;85.45
75380;HTU21D;65641;44.714;37.756;2024-02-15T04:36:13;11.16;85.41
75380;HTU21D;65641;44.714;37.756;2024-02-15T04:37:18;11.16;85.29
75380;HTU21D;65641;44.714;37.756;2024-02-15T04:38:23;11.18;85.31
75380;HTU21D;65641;44.714;37.756;2024-02-15T04:39:28;11.17;85.15
75380;HTU21D;65641;44.714;37.756;2024-02-15T04:40:34;11.16;85.22
75380;HTU21D;65641;44.714;37.756;2024-02-15T04:41:38;11.16;85.27
75380;HTU21D;65641;44.714;37.756;2024-02-15T04:42:42;11.18;85.25
75380;HTU21D;65641;44.714;37.756;2024-02-15T04:43:49;11.18;85.13
75380;HTU21D;65641;44.714;37.756;2024-02-15T04:44:52;11.18;85.29
75380;HTU21D;65641;44.714;37.756;2024-02-15T04:45:57;11.19;85.23
75380;HTU21D;65641;44.714;37.756;2024-02-15T04:47:02;11.18;85.15
75380;HTU21D;65641;44.714;37.756;2024-02-15T04:48:08;11.19;85.35
75380;HTU21D;65641;44.714;37.756;2024-02-15T04:49:12;11.19;85.29
75380;HTU21D;65641;44.714;37.756;2024-02-15T04:50:17;11.19;85.32
75380;HTU21D;65641;44.714;37.756;2024-02-15T04:51:21;11.20;85.17
75380;HTU21D;65641;44.714;37.756;2024-02-15T04:52:25;11.19;85.16
75380;HTU21D;65641;44.714;37.756;2024-02-15T04:53:28;11.20;85.19
75380;HTU21D;65641;44.714;37.756;2024-02-15T04:54:35;11.18;85.24
75380;HTU21D;65641;44.714;37.756;2024-02-15T04:55:38;11.18;85.29
75380;HTU21D;65641;44.714;37.756;2024-02-15T04:56:42;11.19;85.22
75380;HTU21D;65641;44.714;37.756;2024-02-15T04:57:46;11.19;85.22
75380;HTU21D;65641;44.714;37.756;2024-02-15T04:58:52;11.19;85.20
75380;HTU21D;65641;44.714;37.756;2024-02-15T04:59:55;11.19;85.01
75380;HTU21D;65641;44.714;37.756;2024-02-15T05:00:59;11.19;85.13
75380;HTU21D;65641;44.714;37.756;2024-02-15T05:02:02;11.20;85.05
75380;HTU21D;65641;44.714;37.756;2024-02-15T05:03:06;11.17;85.08
75380;HTU21D;65641;44.714;37.756;2024-02-15T05:04:13;11.18;84.97
75380;HTU21D;65641;44.714;37.756;2024-02-15T05:05:17;11.18;85.20
75380;HTU21D;65641;44.714;37.756;2024-02-15T05:06:22;11.19;85.03
75380;HTU21D;65641;44.714;37.756;2024-02-15T05:07:25;11.18;85.06
75380;HTU21D;65641;44.714;37.756;2024-02-15T05:08:29;11.20;85.04
75380;HTU21D;65641;44.714;37.756;2024-02-15T05:09:35;11.19;85.13
75380;HTU21D;65641;44.714;37.756;2024-02-15T05:10:38;11.22;85.23
75380;HTU21D;65641;44.714;37.756;2024-02-15T05:11:41;11.23;85.23
75380;HTU21D;65641;44.714;37.756;2024-02-15T05:12:49;11.23;84.91
75380;HTU21D;65641;44.714;37.756;2024-02-15T05:13:52;11.26;84.97
75380;HTU21D;65641;44.714;37.756;2024-02-15T05:14:56;11.26;84.81
75380;HTU21D;65641;44.714;37.756;2024-02-15T05:15:59;11.26;84.68
75380;HTU21D;65641;44.714;37.756;2024-02-15T05:17:02;11.27;84.77
75380;HTU21D;65641;44.714;37.756;2024-02-15T05:18:06;11.26;84.64
75380;HTU21D;65641;44.714;37.756;2024-02-15T05:19:11;11.27;84.28
75380;HTU21D;65641;44.714;37.756;2024-02-15T05:20:15;11.25;84.52
75380;HTU21D;65641;44.714;37.756;2024-02-15T05:21:19;11.25;84.45
75380;HTU21D;65641;44.714;37.756;2024-02-15T05:22:22;11.27;84.50
75380;HTU21D;65641;44.714;37.756;2024-02-15T05:23:26;11.26;84.62
75380;HTU21D;65641;44.714;37.756;2024-02-15T05:24:29;11.25;84.32
75380;HTU21D;65641;44.714;37.756;2024-02-15T05:25:34;11.25;84.24
75380;HTU21D;65641;44.714;37.756;2024-02-15T05:26:38;11.26;84.61
75380;HTU21D;65641;44.714;37.756;2024-02-15T05:27:41;11.27;84.36
75380;HTU21D;65641;44.714;37.756;2024-02-15T05:28:47;11.27;84.06
75380;HTU21D;65641;44.714;37.756;2024-02-15T05:29:50;11.27;84.16
75380;HTU21D;65641;44.714;37.756;2024-02-15T05:31:15;11.27;84.03
75380;HTU21D;65641;44.714;37.756;2024-02-15T05:32:20;11.26;83.90
75380;HTU21D;65641;44.714;37.756;2024-02-15T05:33:24;11.24;83.82
75380;HTU21D;65641;44.714;37.756;2024-02-15T05:34:29;11.24;84.25
75380;HTU21D;65641;44.714;37.756;2024-02-15T05:35:33;11.25;83.99
75380;HTU21D;65641;44.714;37.756;2024-02-15T05:36:38;11.27;84.13
75380;HTU21D;65641;44.714;37.756;2024-02-15T05:37:43;11.29;84.11
75380;HTU21D;65641;44.714;37.756;2024-02-15T05:38:47;11.30;84.00
75380;HTU21D;65641;44.714;37.756;2024-02-15T05:39:51;11.31;83.81
75380;HTU21D;65641;44.714;37.756;2024-02-15T05:40:56;11.29;83.48
75380;HTU21D;65641;44.714;37.756;2024-02-15T05:42:00;11.29;83.64
75380;HTU21D;65641;44.714;37.756;2024-02-15T05:43:04;11.28;83.50
75380;HTU21D;65641;44.714;37.756;2024-02-15T05:44:09;11.27;83.55
75380;HTU21D;65641;44.714;37.756;2024-02-15T05:45:28;11.27;83.71
75380;HTU21D;65641;44.714;37.756;2024-02-15T05:46:40;11.29;83.73
75380;HTU21D;65641;44.714;37.756;2024-02-15T05:47:43;11.32;83.56
75380;HTU21D;65641;44.714;37.756;2024-02-15T05:48:47;11.32;83.53
75380;HTU21D;65641;44.714;37.756;2024-02-15T05:49:52;11.36;83.49
75380;HTU21D;65641;44.714;37.756;2024-02-15T05:50:56;11.39;83.61
75380;HTU21D;65641;44.714;37.756;2024-02-15T05:52:01;11.43;83.61
75380;HTU21D;65641;44.714;37.756;2024-02-15T05:53:04;11.46;83.45
75380;HTU21D;65641;44.714;37.756;2024-02-15T05:54:09;11.48;83.33
75380;HTU21D;65641;44.714;37.756;2024-02-15T05:55:13;11.46;82.70
75380;HTU21D;65641;44.714;37.756;2024-02-15T05:56:22;11.48;83.33
75380;HTU21D;65641;44.714;37.756;2024-02-15T05:57:26;11.51;83.20
75380;HTU21D;65641;44.714;37.756;2024-02-15T05:58:30;11.53;83.29
75380;HTU21D;65641;44.714;37.756;2024-02-15T05:59:34;11.57;83.23
75380;HTU21D;65641;44.714;37.756;2024-02-15T06:00:38;11.60;82.60
75380;HTU21D;65641;44.714;37.756;2024-02-15T06:01:44;11.61;82.88
75380;HTU21D;65641;44.714;37.756;2024-02-15T06:02:48;11.61;82.98
75380;HTU21D;65641;44.714;37.756;2024-02-15T06:03:53;11.66;82.71
75380;HTU21D;65641;44.714;37.756;2024-02-15T06:04:58;11.69;82.49
75380;HTU21D;65641;44.714;37.756;2024-02-15T06:06:06;11.71;82.43
75380;HTU21D;65641;44.714;37.756;2024-02-15T06:07:10;11.72;82.60
75380;HTU21D;65641;44.714;37.756;2024-02-15T06:08:13;11.76;82.68
75380;HTU21D;65641;44.714;37.756;2024-02-15T06:09:17;11.78;82.50
75380;HTU21D;65641;44.714;37.756;2024-02-15T06:10:20;11.81;82.28
75380;HTU21D;65641;44.714;37.756;2024-02-15T06:11:24;11.85;82.18
75380;HTU21D;65641;44.714;37.756;2024-02-15T06:12:27;11.87;82.06
75380;HTU21D;65641;44.714;37.756;2024-02-15T06:13:31;11.86;81.96
75380;HTU21D;65641;44.714;37.756;2024-02-15T06:14:34;11.87;81.88
75380;HTU21D;65641;44.714;37.756;2024-02-15T06:15:39;11.85;81.81
75380;HTU21D;65641;44.714;37.756;2024-02-15T06:16:45;11.83;81.97
75380;HTU21D;65641;44.714;37.756;2024-02-15T06:17:48;11.83;81.65
75380;HTU21D;65641;44.714;37.756;2024-02-15T06:18:52;11.84;82.16
75380;HTU21D;65641;44.714;37.756;2024-02-15T06:19:57;11.85;81.77
75380;HTU21D;65641;44.714;37.756;2024-02-15T06:21:00;11.85;81.67
75380;HTU21D;65641;44.714;37.756;2024-02-15T06:22:05;11.88;81.62
75380;HTU21D;65641;44.714;37.756;2024-02-15T06:23:08;11.92;81.52
75380;HTU21D;65641;44.714;37.756;2024-02-15T06:24:12;11.96;81.33
75380;HTU21D;65641;44.714;37.756;2024-02-15T06:25:15;11.97;80.98
75380;HTU21D;65641;44.714;37.756;2024-02-15T06:26:25;11.97;80.99
75380;HTU21D;65641;44.714;37.756;2024-02-15T06:27:28;11.99;80.94
75380;HTU21D;65641;44.714;37.756;2024-02-15T06:28:32;12.03;81.30
75380;HTU21D;65641;44.714;37.756;2024-02-15T06:29:54;12.07;80.93
75380;HTU21D;65641;44.714;37.756;2024-02-15T06:31:15;12.12;80.39
75380;HTU21D;65641;44.714;37.756;2024-02-15T06:32:37;12.11;80.49
75380;HTU21D;65641;44.714;37.756;2024-02-15T06:33:59;12.13;80.70
75380;HTU21D;65641;44.714;37.756;2024-02-15T06:35:21;12.14;80.04
75380;HTU21D;65641;44.714;37.756;2024-02-15T06:36:47;12.15;80.02
75380;HTU21D;65641;44.714;37.756;2024-02-15T06:38:09;12.18;79.98
75380;HTU21D;65641;44.714;37.756;2024-02-15T06:39:32;12.20;80.04